Time;durP1;ratioP1;P1;durP2;ratioP2;P2;SDS_P1;SDS_P2;PMS_P1;PMS_P2;Temp;Humidity;BMP_temperature;BMP_pressure;BME280_temperature;BME280_humidity;BME280_pressure;Samples;Min_cycle;Max_cycle;Signal;HPM_P1;HPM_P2
2021/06/25 00:00:26;;;;;;;;;5.60;5.00;;;;;21.77;60.06;98586.47;6209525;28;125422;-64
2021/06/25 00:03:29;;;;;;;;;3.40;3.40;;;;;21.67;60.27;98589.41;6182645;28;126341;-64
2021/06/25 00:06:33;;;;;;;;;4.00;3.00;;;;;21.58;60.31;98594.75;6205392;28;124988;-64
2021/06/25 00:09:38;;;;;;;;;4.20;3.60;;;;;21.26;61.12;98581.84;6208031;28;126625;-64
2021/06/25 00:12:42;;;;;;;;;4.00;4.00;;;;;21.54;60.92;98572.63;6208287;28;123819;-64
2021/06/25 00:15:45;;;;;;;;;3.00;3.00;;;;;21.57;60.89;98562.94;6191480;28;126680;-64
2021/06/25 00:18:48;;;;;;;;;5.00;4.00;;;;;21.33;61.40;98556.78;6208807;28;126201;-64
2021/06/25 00:21:51;;;;;;;;;3.00;3.00;;;;;21.28;61.64;98543.97;6208725;28;126343;-64
2021/06/25 00:24:56;;;;;;;;;3.20;3.00;;;;;21.41;61.37;98545.94;6208847;28;126860;-64
2021/06/25 00:27:59;;;;;;;;;3.00;3.00;;;;;21.69;60.68;98552.31;6208352;28;127381;-65
2021/06/25 00:31:06;;;;;;;;;4.00;3.00;;;;;21.64;60.02;98551.59;6203095;28;125830;-64
2021/06/25 00:34:10;;;;;;;;;7.00;5.40;;;;;22.08;59.59;98590.31;6194643;28;125184;-64
2021/06/25 00:37:13;;;;;;;;;4.00;3.00;;;;;22.34;58.71;98596.94;6201521;28;124742;-65
2021/06/25 00:40:18;;;;;;;;;4.00;3.40;;;;;22.58;58.76;98598.66;6192458;28;125343;-65
2021/06/25 00:43:21;;;;;;;;;2.80;2.80;;;;;22.77;58.39;98610.38;6208269;28;126774;-65
2021/06/25 00:46:24;;;;;;;;;4.00;2.00;;;;;22.90;57.97;98612.28;6209228;28;124858;-65
2021/06/25 00:49:27;;;;;;;;;3.00;3.00;;;;;23.00;57.90;98623.06;6207598;28;125993;-65
2021/06/25 00:52:31;;;;;;;;;3.00;3.00;;;;;23.19;57.33;98631.97;6208762;28;124822;-65
2021/06/25 00:55:42;;;;;;;;;5.00;5.00;;;;;23.28;57.17;98645.78;6208392;28;126539;-65
2021/06/25 00:58:46;;;;;;;;;5.00;4.00;;;;;23.36;57.17;98634.03;6207420;28;124762;-65
2021/06/25 01:01:49;;;;;;;;;5.00;4.60;;;;;23.44;57.03;98635.25;6207260;28;126652;-65
2021/06/25 01:04:53;;;;;;;;;4.00;4.00;;;;;23.48;56.90;98636.25;6204569;28;126742;-65
2021/06/25 01:07:56;;;;;;;;;6.00;5.00;;;;;23.52;56.62;98640.00;6201394;28;126040;-65
2021/06/25 01:11:01;;;;;;;;;3.00;2.75;;;;;23.53;56.38;98628.72;6202697;28;124997;-65
2021/06/25 01:14:05;;;;;;;;;5.00;4.60;;;;;23.59;56.34;98623.91;6201761;28;126053;-65
2021/06/25 01:17:08;;;;;;;;;5.00;4.00;;;;;23.63;56.32;98616.63;6202579;28;124810;-65
2021/06/25 01:20:13;;;;;;;;;4.00;4.00;;;;;23.70;56.51;98606.00;6207713;28;125432;-65
2021/06/25 01:23:18;;;;;;;;;5.00;4.00;;;;;23.72;56.08;98606.50;6211930;28;125025;-65
2021/06/25 01:26:21;;;;;;;;;7.00;6.00;;;;;23.75;55.96;98616.84;6209134;28;125431;-65
2021/06/25 01:29:25;;;;;;;;;6.00;5.00;;;;;23.79;56.24;98604.13;6205682;28;124107;-65
2021/06/25 01:32:28;;;;;;;;;4.00;4.00;;;;;23.82;56.25;98592.47;6205459;28;126252;-65
2021/06/25 01:35:31;;;;;;;;;4.20;4.20;;;;;23.80;56.34;98580.94;6201498;28;125790;-65
2021/06/25 01:38:47;;;;;;;;;4.60;4.00;;;;;23.72;56.19;98560.50;6209147;28;125979;-65
2021/06/25 01:41:50;;;;;;;;;5.00;5.00;;;;;23.80;55.99;98575.44;6206270;28;125928;-65
2021/06/25 01:44:54;;;;;;;;;6.00;6.00;;;;;23.81;56.15;98579.00;6189613;28;125054;-65
2021/06/25 01:47:58;;;;;;;;;5.00;5.00;;;;;23.80;56.24;98596.69;6209483;28;124876;-65
2021/06/25 01:51:01;;;;;;;;;5.00;5.00;;;;;23.71;56.24;98600.16;6197919;28;124912;-65
2021/06/25 01:54:06;;;;;;;;;4.50;4.00;;;;;23.73;56.17;98621.88;6193843;28;126127;-65
2021/06/25 01:57:09;;;;;;;;;4.60;4.60;;;;;23.75;56.16;98631.44;6198503;28;124568;-65
2021/06/25 02:00:14;;;;;;;;;6.60;6.00;;;;;23.82;55.97;98647.53;6210984;28;125105;-65
2021/06/25 02:03:17;;;;;;;;;5.60;5.00;;;;;23.63;56.09;98619.38;6199392;28;126489;-65
2021/06/25 02:06:21;;;;;;;;;7.00;7.00;;;;;23.89;56.08;98658.09;6197084;28;124828;-65
2021/06/25 02:09:26;;;;;;;;;8.00;7.00;;;;;23.89;55.79;98653.41;6193111;28;124984;-65
2021/06/25 02:12:29;;;;;;;;;8.00;8.00;;;;;23.93;55.46;98657.16;6194317;28;123395;-65
2021/06/25 02:15:32;;;;;;;;;6.00;5.00;;;;;23.90;55.63;98660.53;6211460;28;126201;-65
2021/06/25 02:18:36;;;;;;;;;6.00;5.40;;;;;23.71;55.92;98627.69;6210567;28;126019;-65
2021/06/25 02:21:39;;;;;;;;;8.00;8.00;;;;;23.85;55.67;98629.56;6208950;28;127268;-65
2021/06/25 02:24:44;;;;;;;;;8.00;7.60;;;;;23.86;56.02;98629.25;6202684;28;125016;-65
2021/06/25 02:27:47;;;;;;;;;8.25;8.00;;;;;23.90;56.28;98618.41;6205434;28;126264;-64
2021/06/25 02:30:50;;;;;;;;;9.00;8.00;;;;;23.88;55.79;98612.41;6197052;28;126185;-64
2021/06/25 02:33:54;;;;;;;;;7.50;7.50;;;;;23.90;55.98;98627.47;6181587;28;125004;-64
2021/06/25 02:36:57;;;;;;;;;9.75;9.00;;;;;23.76;55.59;98612.97;6197040;28;125037;-64
2021/06/25 02:40:02;;;;;;;;;7.00;7.00;;;;;23.92;55.80;98641.75;6203615;28;126374;-64
2021/06/25 02:43:05;;;;;;;;;9.00;9.00;;;;;23.88;55.67;98643.53;6205126;28;127498;-64
2021/06/25 02:46:08;;;;;;;;;9.00;8.00;;;;;23.63;56.32;98619.38;6205742;28;126096;-64
2021/06/25 02:49:11;;;;;;;;;8.00;7.00;;;;;23.37;57.31;98610.09;6208277;28;124952;-64
2021/06/25 02:52:15;;;;;;;;;8.60;7.60;;;;;23.22;57.90;98636.00;6210782;28;124717;-64
2021/06/25 02:55:20;;;;;;;;;11.20;10.00;;;;;23.24;57.77;98664.84;6193989;28;126085;-64
2021/06/25 02:58:25;;;;;;;;;11.00;10.00;;;;;23.32;57.60;98677.84;6209640;28;124416;-65
2021/06/25 03:01:28;;;;;;;;;8.80;8.00;;;;;23.40;57.67;98659.81;6210054;28;126051;-65
2021/06/25 03:04:32;;;;;;;;;8.00;8.00;;;;;23.52;58.11;98645.53;6207144;28;124247;-65
2021/06/25 03:07:35;;;;;;;;;9.00;7.00;;;;;23.63;57.16;98715.72;6205865;28;126156;-65
2021/06/25 03:10:42;;;;;;;;;7.20;7.20;;;;;23.59;57.43;98775.25;6209083;28;125070;-64
2021/06/25 03:13:45;;;;;;;;;8.00;7.00;;;;;23.66;57.39;98754.44;6208120;28;125980;-64
2021/06/25 03:16:49;;;;;;;;;6.00;6.00;;;;;23.76;57.27;98654.28;6206100;28;126395;-64
2021/06/25 03:19:52;;;;;;;;;8.00;6.00;;;;;23.70;56.94;98593.03;6197618;28;125108;-64
2021/06/25 03:22:56;;;;;;;;;9.00;8.00;;;;;23.50;57.47;98579.81;6193811;28;124969;-65
2021/06/25 03:26:00;;;;;;;;;8.00;7.00;;;;;23.48;58.01;98573.78;6190542;28;125000;-65
2021/06/25 03:29:03;;;;;;;;;10.00;8.00;;;;;23.52;57.82;98565.72;6200580;28;126638;-64
2021/06/25 03:32:08;;;;;;;;;9.00;7.40;;;;;23.60;57.96;98564.97;6204845;28;125230;-64
2021/06/25 03:35:12;;;;;;;;;7.00;7.00;;;;;23.74;57.66;98576.72;6180885;28;124003;-64
2021/06/25 03:38:15;;;;;;;;;8.00;7.00;;;;;23.83;57.07;98585.84;6201569;28;126530;-64
2021/06/25 03:41:20;;;;;;;;;6.20;6.20;;;;;23.93;56.75;98574.56;6197410;28;126844;-64
2021/06/25 03:44:23;;;;;;;;;8.60;8.00;;;;;23.74;56.38;98555.50;6205174;28;125419;-64
2021/06/25 03:47:26;;;;;;;;;8.00;7.00;;;;;23.84;56.40;98581.97;6187828;28;126280;-64
2021/06/25 03:50:29;;;;;;;;;9.00;7.00;;;;;23.77;56.63;98578.84;6208085;28;126002;-64
2021/06/25 03:53:33;;;;;;;;;12.00;11.00;;;;;23.81;56.87;98566.06;6191687;28;125494;-64
2021/06/25 03:56:38;;;;;;;;;8.00;8.00;;;;;23.86;57.08;98568.66;6208319;28;125100;-65
2021/06/25 03:59:41;;;;;;;;;10.00;9.00;;;;;23.85;57.01;98558.78;6208554;28;126482;-65
2021/06/25 04:02:44;;;;;;;;;8.00;8.00;;;;;23.74;57.44;98558.28;6195188;28;126720;-65
2021/06/25 04:05:47;;;;;;;;;8.00;7.00;;;;;23.55;57.47;98570.63;6199075;28;124696;-65
2021/06/25 04:08:51;;;;;;;;;10.40;9.60;;;;;23.57;57.97;98565.59;6208347;28;125611;-64
2021/06/25 04:11:55;;;;;;;;;7.20;7.00;;;;;23.42;58.29;98553.00;6205267;28;126174;-64
2021/06/25 04:14:58;;;;;;;;;10.00;9.00;;;;;23.41;58.33;98556.88;6206815;28;126413;-64
2021/06/25 04:18:02;;;;;;;;;6.50;6.00;;;;;23.42;58.23;98553.00;6189960;28;125057;-64
2021/06/25 04:21:06;;;;;;;;;8.00;7.50;;;;;23.42;58.03;98547.50;6197323;28;125096;-64
2021/06/25 04:24:09;;;;;;;;;9.40;8.00;;;;;23.44;58.21;98553.50;6201048;28;123764;-64
2021/06/25 04:27:14;;;;;;;;;6.00;5.00;;;;;23.56;58.05;98559.28;6207404;28;126058;-65
2021/06/25 04:30:18;;;;;;;;;7.00;6.60;;;;;23.74;58.20;98557.44;6202687;28;126882;-65
2021/06/25 04:33:22;;;;;;;;;6.00;5.60;;;;;23.81;57.57;98552.28;6202359;28;124961;-65
2021/06/25 04:36:25;;;;;;;;;6.00;6.00;;;;;23.81;57.41;98543.22;6206736;28;125008;-64
2021/06/25 04:39:28;;;;;;;;;7.00;6.00;;;;;24.06;57.75;98537.03;6205749;28;126383;-64
2021/06/25 04:42:33;;;;;;;;;7.00;6.00;;;;;24.19;56.77;98541.63;6190962;28;126370;-64
2021/06/25 04:45:38;;;;;;;;;7.60;6.00;;;;;24.29;56.24;98529.53;6213275;28;123688;-64
2021/06/25 04:48:43;;;;;;;;;8.50;8.00;;;;;24.36;56.51;98527.91;6205196;28;124600;-64
2021/06/25 04:51:49;;;;;;;;;7.00;6.00;;;;;24.37;55.90;98520.47;6199474;28;126074;-64
2021/06/25 04:54:52;;;;;;;;;10.00;7.00;;;;;24.51;56.50;98510.13;6187004;28;124975;-64
2021/06/25 04:57:57;;;;;;;;;8.00;6.00;;;;;24.65;56.10;98501.69;6207234;28;124991;-64
2021/06/25 05:01:04;;;;;;;;;6.50;6.00;;;;;24.82;56.09;98502.53;6207009;28;126017;-64
2021/06/25 05:04:08;;;;;;;;;7.00;7.00;;;;;25.00;55.86;98506.13;6193028;28;126235;-64
2021/06/25 05:07:11;;;;;;;;;8.00;6.80;;;;;25.12;55.67;98505.47;6202202;28;126298;-64
2021/06/25 05:10:14;;;;;;;;;7.00;6.25;;;;;25.40;55.68;98515.00;6182199;28;126660;-64
2021/06/25 05:13:19;;;;;;;;;6.00;6.00;;;;;25.59;54.96;98518.25;6203693;28;127039;-64
2021/06/25 05:16:22;;;;;;;;;6.00;6.00;;;;;25.74;54.25;98505.84;6209329;28;124955;-64
2021/06/25 05:19:25;;;;;;;;;7.00;7.00;;;;;25.90;53.63;98506.13;6194925;28;125637;-64
2021/06/25 05:22:29;;;;;;;;;7.00;6.00;;;;;26.00;53.62;98512.06;6197812;28;125144;-64
2021/06/25 05:25:32;;;;;;;;;8.00;7.25;;;;;26.13;53.70;98516.56;6195990;28;126648;-64
2021/06/25 05:28:37;;;;;;;;;6.80;6.00;;;;;26.30;53.52;98512.94;6186237;28;125960;-64
2021/06/25 05:31:40;;;;;;;;;7.00;6.25;;;;;26.50;53.36;98516.88;6199194;28;125833;-63
2021/06/25 05:34:45;;;;;;;;;7.80;6.80;;;;;26.70;51.70;98516.09;6210501;28;126796;-64
2021/06/25 05:37:48;;;;;;;;;5.80;5.80;;;;;26.87;51.05;98504.94;6210836;28;126046;-64
2021/06/25 05:40:51;;;;;;;;;5.00;5.00;;;;;26.87;49.54;98493.06;6201298;28;126633;-62
2021/06/25 05:43:56;;;;;;;;;5.40;5.00;;;;;27.08;49.69;98510.44;6188038;28;124815;-62
2021/06/25 05:46:59;;;;;;;;;8.00;7.75;;;;;27.22;49.66;98512.94;6188462;28;127089;-63
2021/06/25 05:50:02;;;;;;;;;7.00;6.00;;;;;27.29;50.20;98494.63;6210589;28;125847;-62
2021/06/25 05:53:06;;;;;;;;;5.00;4.00;;;;;27.50;48.90;98503.72;6208418;28;125049;-62
2021/06/25 05:56:09;;;;;;;;;6.00;5.00;;;;;27.64;48.56;98500.63;6203536;28;126285;-62
2021/06/25 05:59:14;;;;;;;;;7.00;6.60;;;;;27.83;48.87;98503.66;6210949;28;126241;-62
2021/06/25 06:02:17;;;;;;;;;8.00;7.00;;;;;28.01;49.64;98507.84;6211047;28;124481;-62
2021/06/25 06:05:20;;;;;;;;;7.80;7.80;;;;;28.18;48.79;98506.03;6196337;28;126204;-62
2021/06/25 06:08:23;;;;;;;;;7.60;7.00;;;;;28.32;48.29;98507.31;6204859;28;126195;-62
2021/06/25 06:11:27;;;;;;;;;8.00;7.00;;;;;28.46;47.99;98508.91;6203302;28;128012;-62
2021/06/25 06:14:31;;;;;;;;;8.40;8.00;;;;;28.60;47.72;98512.13;6185732;28;126590;-62
2021/06/25 06:17:38;;;;;;;;;8.00;7.00;;;;;28.70;46.42;98520.75;6195159;28;125436;-62
2021/06/25 06:20:42;;;;;;;;;6.00;5.00;;;;;28.88;46.58;98523.31;6189667;28;125964;-62
2021/06/25 06:34:08;;;;;;;;;7.00;6.00;;;;;29.46;44.75;98538.53;6176111;28;124829;-61
2021/06/25 06:37:16;;;;;;;;;6.00;5.00;;;;;29.56;44.75;98544.38;6185571;28;126500;-62
2021/06/25 06:40:20;;;;;;;;;5.00;4.60;;;;;29.74;44.47;98546.81;6203865;28;126218;-63
2021/06/25 06:43:23;;;;;;;;;5.00;4.20;;;;;29.79;44.28;98535.44;6201223;28;126744;-63
2021/06/25 06:46:28;;;;;;;;;5.40;5.00;;;;;30.08;43.47;98557.28;6196069;28;126242;-63
2021/06/25 06:49:31;;;;;;;;;6.40;6.00;;;;;30.16;42.52;98559.06;6183731;28;126909;-63
2021/06/25 06:52:34;;;;;;;;;6.00;6.00;;;;;30.27;42.60;98562.13;6196883;28;126868;-63
2021/06/25 06:55:42;;;;;;;;;6.00;5.00;;;;;30.35;41.94;98570.28;6209442;28;126381;-63
2021/06/25 06:58:46;;;;;;;;;7.00;6.00;;;;;30.47;42.36;98561.88;6174571;28;126147;-63
2021/06/25 07:01:51;;;;;;;;;7.20;6.40;;;;;30.59;41.89;98574.88;6186352;28;126483;-62
2021/06/25 07:05:11;;;;;;;;;8.00;7.60;;;;;30.78;41.56;98579.69;6186837;28;126446;-63
2021/06/25 07:08:14;;;;;;;;;7.60;7.00;;;;;30.97;42.35;98591.66;6197330;28;126397;-62
2021/06/25 07:11:18;;;;;;;;;8.00;7.00;;;;;31.15;41.87;98588.50;6186510;28;126442;-64
2021/06/25 07:14:21;;;;;;;;;8.75;7.00;;;;;31.29;40.29;98589.59;6186263;28;124603;-63
2021/06/25 07:17:25;;;;;;;;;7.60;6.60;;;;;31.45;41.13;98589.53;6168644;28;125254;-63
2021/06/25 07:20:29;;;;;;;;;8.20;7.80;;;;;31.50;39.86;98585.66;6190545;28;124381;-63
2021/06/25 07:23:33;;;;;;;;;7.50;7.50;;;;;31.27;40.44;98527.91;6188243;28;123803;-62
2021/06/25 07:26:36;;;;;;;;;5.75;5.75;;;;;31.81;39.48;98591.09;6207970;28;127173;-62
2021/06/25 07:29:39;;;;;;;;;6.00;6.00;;;;;31.98;39.00;98587.00;6205663;28;126075;-62
2021/06/25 07:32:44;;;;;;;;;6.00;6.00;;;;;32.25;39.74;98580.38;6207028;28;126311;-63
2021/06/25 07:39:29;;;;;;;;;5.50;5.00;;;;;32.41;39.24;98577.44;6209325;28;97091;-58
2021/06/25 07:42:32;;;;;;;;;5.00;5.00;;;;;32.46;38.60;98589.09;6212587;28;126767;-58
2021/06/25 07:45:35;;;;;;;;;5.00;5.00;;;;;32.42;39.13;98593.81;6209471;28;127537;-58
2021/06/25 07:48:40;;;;;;;;;4.00;4.00;;;;;32.36;39.17;98600.06;6190184;28;127067;-59
2021/06/25 07:51:43;;;;;;;;;5.40;4.00;;;;;32.32;38.65;98604.78;6208087;28;125819;-58
2021/06/25 07:54:46;;;;;;;;;5.00;4.25;;;;;32.10;38.34;98598.84;6207149;28;126187;-59
2021/06/25 07:57:49;;;;;;;;;5.80;5.00;;;;;31.91;39.01;98601.66;6209289;28;126470;-59
2021/06/25 08:00:52;;;;;;;;;4.60;4.60;;;;;31.71;39.24;98605.63;6202193;28;126389;-59
2021/06/25 08:03:57;;;;;;;;;4.50;4.50;;;;;31.51;39.53;98601.19;6190345;28;126530;-58
2021/06/25 08:07:00;;;;;;;;;6.00;5.25;;;;;31.17;39.59;98584.19;6204708;28;126290;-59
2021/06/25 08:10:05;;;;;;;;;7.00;6.00;;;;;31.09;40.05;98603.88;6217878;28;125474;-59
2021/06/25 08:13:09;;;;;;;;;6.00;4.00;;;;;30.93;40.59;98601.13;6218988;28;126986;-59
2021/06/25 08:16:13;;;;;;;;;4.75;4.50;;;;;30.80;40.45;98603.19;6224324;27;124893;-58
2021/06/25 08:19:17;;;;;;;;;4.00;4.00;;;;;30.54;40.74;98589.84;6202050;28;124919;-59
2021/06/25 08:22:21;;;;;;;;;4.80;4.80;;;;;30.47;40.82;98606.38;6194163;28;123593;-60
2021/06/25 08:25:24;;;;;;;;;5.00;4.40;;;;;30.35;41.29;98603.66;6194288;28;126249;-58
2021/06/25 08:28:32;;;;;;;;;4.60;4.00;;;;;30.24;41.47;98618.47;6217897;28;124418;-59
2021/06/25 08:31:35;;;;;;;;;4.00;4.00;;;;;30.20;41.10;98623.94;6199992;28;125624;-59
2021/06/25 08:34:40;;;;;;;;;4.00;3.67;;;;;30.13;41.79;98634.84;6200909;28;125032;-59
2021/06/25 08:37:43;;;;;;;;;5.00;4.00;;;;;30.06;41.49;98637.44;6203655;28;126507;-58
2021/06/25 08:40:46;;;;;;;;;5.00;4.50;;;;;29.91;41.25;98639.03;6204486;28;124705;-59
2021/06/25 08:43:50;;;;;;;;;4.00;4.00;;;;;29.87;41.77;98635.31;6196835;28;126886;-59
2021/06/25 08:46:53;;;;;;;;;7.40;7.00;;;;;29.83;42.28;98634.41;6213450;28;127226;-59
2021/06/25 08:50:00;;;;;;;;;5.00;4.00;;;;;29.74;42.62;98630.16;6208318;28;127187;-59
2021/06/25 08:53:04;;;;;;;;;4.00;4.00;;;;;29.69;41.26;98642.34;6215113;28;124576;-59
2021/06/25 08:56:07;;;;;;;;;5.00;5.00;;;;;29.66;41.97;98641.06;6210449;28;126378;-59
2021/06/25 08:59:10;;;;;;;;;5.00;4.00;;;;;29.65;42.68;98642.25;6209864;28;124975;-59
2021/06/25 09:02:15;;;;;;;;;3.80;3.20;;;;;29.61;41.89;98640.53;6211601;28;125099;-59
2021/06/25 09:05:28;;;;;;;;;5.00;4.00;;;;;29.61;42.79;98649.69;6211035;28;124587;-59
2021/06/25 09:08:32;;;;;;;;;9.00;9.00;;;;;29.62;42.43;98647.69;6214601;28;125740;-59
2021/06/25 09:11:37;;;;;;;;;5.00;5.00;;;;;29.58;42.91;98635.66;6210914;28;125608;-59
2021/06/25 09:15:00;;;;;;;;;6.00;6.00;;;;;29.64;42.55;98632.28;6207661;28;126527;-59
2021/06/25 09:18:06;;;;;;;;;5.00;5.00;;;;;29.68;42.56;98632.38;6209881;28;126634;-58
2021/06/25 09:21:13;;;;;;;;;4.00;4.00;;;;;29.77;41.97;98626.66;6210352;28;125650;-58
2021/06/25 09:24:22;;;;;;;;;5.40;4.00;;;;;29.86;42.30;98632.91;6209656;28;127056;-59
2021/06/25 09:27:27;;;;;;;;;5.50;5.00;;;;;30.00;42.76;98627.75;6210293;28;126646;-59
2021/06/25 09:30:43;;;;;;;;;4.20;4.00;;;;;30.11;41.77;98621.31;6208986;28;125675;-59
2021/06/25 09:33:48;;;;;;;;;7.00;6.00;;;;;30.21;42.01;98616.38;6211259;28;127286;-59
2021/06/25 09:37:01;;;;;;;;;4.50;4.00;;;;;30.20;41.72;98623.13;6209422;28;125935;-60
2021/06/25 09:40:07;;;;;;;;;5.00;4.60;;;;;30.23;41.59;98617.66;6212772;28;124857;-59
2021/06/25 09:43:13;;;;;;;;;5.00;4.00;;;;;30.20;42.10;98625.91;6212191;28;125755;-59
2021/06/25 09:46:24;;;;;;;;;5.00;5.00;;;;;30.05;41.54;98633.06;6211535;28;125891;-59
2021/06/25 09:49:32;;;;;;;;;4.50;4.00;;;;;29.98;41.78;98624.53;6207528;28;126507;-59
2021/06/25 09:52:54;;;;;;;;;6.40;5.00;;;;;29.95;42.55;98628.84;6210546;28;125189;-64
2021/06/25 09:56:00;;;;;;;;;5.00;4.40;;;;;29.88;42.48;98645.28;6197321;28;124791;-62
2021/06/25 09:59:58;;;;;;;;;6.00;5.00;;;;;29.80;41.81;98653.78;6210805;28;123806;-60
2021/06/25 10:03:01;;;;;;;;;5.00;5.00;;;;;29.74;42.24;98644.88;6211582;28;126167;-60
2021/06/25 10:06:12;;;;;;;;;5.00;4.40;;;;;29.73;42.69;98640.47;6199892;28;124889;-59
2021/06/25 10:09:17;;;;;;;;;6.00;6.00;;;;;29.68;42.22;98646.28;6206141;28;124680;-59
2021/06/25 10:12:21;;;;;;;;;5.00;5.00;;;;;29.64;41.95;98642.59;6211046;28;126347;-58
2021/06/25 10:15:25;;;;;;;;;6.40;6.00;;;;;29.64;42.63;98643.41;6209721;28;126537;-59
2021/06/25 10:18:35;;;;;;;;;7.00;6.40;;;;;29.58;43.42;98646.78;6210603;28;124408;-59
2021/06/25 10:21:39;;;;;;;;;7.80;6.80;;;;;29.65;42.57;98652.56;6209340;28;126426;-58
2021/06/25 10:24:49;;;;;;;;;5.00;5.00;;;;;29.61;43.34;98659.97;6210110;28;126281;-59
2021/06/25 10:27:53;;;;;;;;;5.80;5.00;;;;;29.58;43.25;98655.13;6209556;28;124506;-59
2021/06/25 10:30:56;;;;;;;;;7.00;5.00;;;;;29.50;42.64;98662.44;6211274;28;125625;-59
2021/06/25 10:34:00;;;;;;;;;6.00;5.00;;;;;29.46;42.45;98672.66;6211043;28;125116;-58
2021/06/25 10:37:07;;;;;;;;;7.00;7.00;;;;;29.36;42.88;98673.13;6206298;28;127444;-59
2021/06/25 10:40:23;;;;;;;;;7.20;7.00;;;;;29.31;43.60;98675.34;6199748;28;125327;-58
2021/06/25 10:43:50;;;;;;;;;6.60;6.00;;;;;29.25;45.10;98672.75;6210082;28;124667;-59
2021/06/25 10:46:53;;;;;;;;;5.60;5.00;;;;;29.22;46.00;98669.88;6208987;28;124504;-58
2021/06/25 10:50:33;;;;;;;;;7.40;6.40;;;;;29.13;44.70;98674.72;6211456;28;126752;-58
2021/06/25 10:53:36;;;;;;;;;8.20;7.00;;;;;29.07;45.50;98687.25;6207635;28;125477;-58
2021/06/25 10:57:00;;;;;;;;;6.40;6.40;;;;;28.87;45.44;98691.78;6208479;28;123946;-57
2021/06/25 11:00:06;;;;;;;;;10.00;8.00;;;;;28.85;45.71;98696.84;6211362;28;97426;-57
2021/06/25 11:03:35;;;;;;;;;9.00;8.00;;;;;28.67;46.99;98687.91;6206950;28;124791;-59
2021/06/25 11:06:54;;;;;;;;;6.00;6.00;;;;;28.58;47.19;98691.94;6207596;28;124577;-59
2021/06/25 11:09:59;;;;;;;;;7.00;7.00;;;;;28.30;48.03;98691.75;6208164;28;126954;-58
2021/06/25 11:13:22;;;;;;;;;9.00;8.00;;;;;28.23;48.58;98710.94;6209554;28;126136;-59
2021/06/25 11:16:31;;;;;;;;;7.00;7.00;;;;;28.14;49.37;98711.03;6203332;28;126065;-58
2021/06/25 11:19:36;;;;;;;;;8.00;7.40;;;;;28.09;49.01;98713.16;6207217;28;125500;-59
2021/06/25 11:22:40;;;;;;;;;7.00;7.00;;;;;28.00;49.21;98710.50;6207815;28;126863;-59
2021/06/25 11:25:47;;;;;;;;;6.80;6.20;;;;;27.98;49.86;98723.88;6207075;28;124976;-58
2021/06/25 11:28:52;;;;;;;;;7.00;6.00;;;;;27.93;50.26;98724.88;6208936;28;125036;-58
2021/06/25 11:32:09;;;;;;;;;9.00;9.00;;;;;27.90;50.55;98725.56;6211269;28;127651;-59
2021/06/25 11:35:34;;;;;;;;;7.60;7.00;;;;;27.90;51.01;98724.75;6208060;28;125124;-59
2021/06/25 11:38:53;;;;;;;;;7.00;6.60;;;;;27.97;50.79;98727.78;6209576;28;126498;-58
2021/06/25 11:41:59;;;;;;;;;7.60;6.60;;;;;27.93;50.76;98730.44;6209748;28;124641;-57
2021/06/25 11:45:04;;;;;;;;;10.00;9.00;;;;;27.87;50.39;98712.38;6207377;28;126907;-57
2021/06/25 11:48:08;;;;;;;;;11.75;10.25;;;;;27.66;50.73;98703.25;6205022;28;124194;-58
2021/06/25 11:51:12;;;;;;;;;9.00;8.00;;;;;27.86;51.03;98721.84;6208782;28;125093;-59
2021/06/25 11:54:20;;;;;;;;;14.00;13.00;;;;;27.88;51.33;98732.59;6202080;28;124662;-58
2021/06/25 11:57:25;;;;;;;;;14.75;13.75;;;;;27.87;52.16;98737.31;6208371;28;124408;-58
2021/06/25 12:00:29;;;;;;;;;18.00;17.60;;;;;27.87;52.03;98740.09;6210958;28;126758;-59
2021/06/25 12:03:43;;;;;;;;;21.00;19.00;;;;;27.85;52.47;98739.63;6206294;28;125936;-58
2021/06/25 12:06:51;;;;;;;;;18.00;17.00;;;;;27.77;51.43;98736.91;6204724;28;124521;-58
2021/06/25 12:09:54;;;;;;;;;21.00;18.00;;;;;27.74;51.53;98737.59;6204762;28;126066;-58
2021/06/25 12:13:00;;;;;;;;;20.20;18.20;;;;;27.70;51.26;98739.44;6209636;28;126581;-58
2021/06/25 12:16:10;;;;;;;;;18.20;16.80;;;;;27.73;51.58;98725.72;6203168;28;126461;-58
2021/06/25 12:19:14;;;;;;;;;18.00;17.80;;;;;27.81;50.52;98733.13;6203503;28;126864;-57
2021/06/25 12:22:17;;;;;;;;;17.00;16.00;;;;;27.75;50.36;98726.19;6221832;28;125525;-59
2021/06/25 12:25:33;;;;;;;;;18.00;16.60;;;;;27.68;50.02;98695.44;6207139;28;126499;-60
2021/06/25 12:28:36;;;;;;;;;18.00;17.00;;;;;27.79;49.68;98704.16;6204760;28;126833;-58
2021/06/25 12:31:41;;;;;;;;;17.75;15.00;;;;;27.90;49.49;98706.19;6208141;28;127059;-59
2021/06/25 12:34:47;;;;;;;;;18.33;17.67;;;;;27.97;49.75;98711.16;6207458;28;124187;-58
2021/06/25 12:37:54;;;;;;;;;20.00;18.00;;;;;27.97;49.73;98709.19;6207996;28;124054;-58
2021/06/25 12:40:58;;;;;;;;;21.00;18.00;;;;;28.01;50.13;98717.63;6206175;28;126652;-59
2021/06/25 12:44:01;;;;;;;;;18.00;16.40;;;;;28.02;50.14;98722.03;6205248;28;124603;-57
2021/06/25 12:47:08;;;;;;;;;18.00;17.60;;;;;28.10;49.72;98721.13;6207332;28;126185;-59
2021/06/25 12:50:12;;;;;;;;;19.00;18.00;;;;;28.22;48.77;98729.53;6207515;28;126099;-60
2021/06/25 12:53:23;;;;;;;;;20.60;17.60;;;;;28.54;48.43;98718.75;6212034;28;127508;-58
2021/06/25 12:56:30;;;;;;;;;18.00;17.00;;;;;28.81;47.69;98727.25;6211530;28;124382;-57
2021/06/25 12:59:34;;;;;;;;;17.00;16.00;;;;;29.03;46.46;98727.97;6208307;28;126220;-58
2021/06/25 13:02:38;;;;;;;;;14.00;13.00;;;;;29.19;45.76;98726.91;6205261;28;127137;-57
2021/06/25 13:05:42;;;;;;;;;14.60;14.60;;;;;29.29;45.52;98722.84;6202778;28;124401;-58
2021/06/25 13:08:45;;;;;;;;;14.00;13.00;;;;;29.52;44.46;98712.06;6208443;28;125037;-58
2021/06/25 13:11:50;;;;;;;;;15.00;13.00;;;;;29.68;44.30;98724.06;6213080;28;126648;-59
2021/06/25 13:14:55;;;;;;;;;14.00;13.00;;;;;29.85;43.22;98734.94;6208051;28;126237;-58
2021/06/25 13:18:01;;;;;;;;;14.40;14.00;;;;;30.05;42.33;98730.38;6212297;28;124567;-58
2021/06/25 13:21:46;;;;;;;;;16.00;13.00;;;;;30.22;42.56;98732.81;6212261;28;127014;-58
2021/06/25 13:25:14;;;;;;;;;15.75;14.75;;;;;30.16;41.89;98736.19;6211110;28;125931;-58
2021/06/25 13:28:17;;;;;;;;;15.00;13.00;;;;;30.31;42.26;98735.44;6211656;28;125878;-58
2021/06/25 13:31:21;;;;;;;;;17.20;15.20;;;;;30.20;42.36;98726.00;6212652;28;126670;-59
2021/06/25 13:34:26;;;;;;;;;15.60;14.60;;;;;30.15;42.87;98740.16;6212388;28;124812;-59
2021/06/25 13:37:41;;;;;;;;;17.50;16.50;;;;;29.97;43.61;98748.78;6211382;28;126213;-58
2021/06/25 13:40:49;;;;;;;;;17.20;16.00;;;;;29.90;43.59;98751.38;6205560;28;126432;-58
2021/06/25 13:43:55;;;;;;;;;21.40;20.40;;;;;29.80;43.72;98757.41;6210623;27;127021;-59
2021/06/25 13:47:06;;;;;;;;;19.00;17.00;;;;;29.67;44.13;98750.22;6207297;28;124154;-59
2021/06/25 13:50:11;;;;;;;;;20.00;19.00;;;;;29.51;44.66;98750.19;6206734;28;125356;-58
2021/06/25 13:53:29;;;;;;;;;19.00;17.00;;;;;29.43;44.75;98748.31;6207225;28;127509;-58
2021/06/25 13:56:37;;;;;;;;;22.00;21.00;;;;;29.39;45.02;98754.91;6211263;28;125163;-60
2021/06/25 13:59:41;;;;;;;;;19.75;19.00;;;;;29.43;45.45;98755.84;6225611;28;126016;-58
2021/06/25 14:02:49;;;;;;;;;21.40;19.60;;;;;29.41;45.47;98750.66;6209992;28;126178;-59
2021/06/25 14:05:59;;;;;;;;;21.00;20.60;;;;;29.38;45.45;98748.56;6209053;28;125589;-59
2021/06/25 14:09:03;;;;;;;;;25.00;23.00;;;;;29.10;46.19;98719.84;6212046;28;124655;-58
2021/06/25 14:12:11;;;;;;;;;26.00;23.60;;;;;29.08;46.66;98736.03;6204497;28;126776;-58
2021/06/25 14:15:14;;;;;;;;;24.20;22.60;;;;;29.19;46.96;98756.63;6213002;28;124875;-58
2021/06/25 14:18:20;;;;;;;;;20.80;20.80;;;;;29.01;46.66;98758.03;6211206;28;126459;-59
2021/06/25 14:21:27;;;;;;;;;23.00;21.00;;;;;29.00;46.62;98748.06;6209560;28;126942;-58
2021/06/25 14:24:30;;;;;;;;;19.40;18.60;;;;;29.00;46.38;98745.31;6209784;28;123857;-59
2021/06/25 14:27:40;;;;;;;;;22.00;20.00;;;;;29.08;46.78;98747.94;6202375;28;126779;-58
2021/06/25 14:30:43;;;;;;;;;19.60;18.60;;;;;29.08;45.60;98739.63;6211448;28;127020;-58
2021/06/25 14:33:47;;;;;;;;;21.80;19.80;;;;;29.14;45.18;98740.22;6205006;28;125652;-60